Terminal Aerodrome Forecast
Issued by NWS

Home | Current Version | Previous Version | Text Only | Print | Product List | Glossary On
Versions: 1 2 3 4 5 6 7 8 9 10 11 12 13 14 15 16 17 18
000
FTAK31 PANC 250540
TAFACD
TAF
PACD 250540Z 2506/2606 14011KT P6SM VCSH SCT008 BKN015
      TEMPO 2506/2508 5SM BR BKN008
     FM250900 16008KT 4SM BR BKN007
     FM251200 VRB04KT 2SM BR OVC007
     FM252000 VRB03KT P6SM VCFG FEW008 BKN020=

USA.gov is the U.S. government's official web portal to all federal, state and local government web resources and services.